sensor_id;sensor_type;location;lat;lon;timestamp;P1;durP1;ratioP1;P2;durP2;ratioP2
18657;SDS011;9458;50.942;5.074;2023-04-01T00:01:14;2.88;;;1.15;;
18657;SDS011;9458;50.942;5.074;2023-04-01T00:03:51;2.13;;;1.00;;
18657;SDS011;9458;50.942;5.074;2023-04-01T00:06:23;2.88;;;0.90;;
18657;SDS011;9458;50.942;5.074;2023-04-01T00:08:55;2.13;;;1.00;;
18657;SDS011;9458;50.942;5.074;2023-04-01T00:11:24;4.80;;;1.10;;
18657;SDS011;9458;50.942;5.074;2023-04-01T00:14:04;2.03;;;0.70;;
18657;SDS011;9458;50.942;5.074;2023-04-01T00:16:35;3.85;;;1.60;;
18657;SDS011;9458;50.942;5.074;2023-04-01T00:19:12;3.75;;;0.98;;
18657;SDS011;9458;50.942;5.074;2023-04-01T00:21:42;1.88;;;1.00;;
18657;SDS011;9458;50.942;5.074;2023-04-01T00:24:12;3.00;;;0.95;;
18657;SDS011;9458;50.942;5.074;2023-04-01T00:26:41;2.72;;;0.85;;
18657;SDS011;9458;50.942;5.074;2023-04-01T00:29:14;4.18;;;1.38;;
18657;SDS011;9458;50.942;5.074;2023-04-01T00:31:45;3.30;;;0.90;;
18657;SDS011;9458;50.942;5.074;2023-04-01T00:34:14;3.17;;;1.15;;
18657;SDS011;9458;50.942;5.074;2023-04-01T00:36:43;1.75;;;1.33;;
18657;SDS011;9458;50.942;5.074;2023-04-01T00:39:14;3.63;;;1.05;;
18657;SDS011;9458;50.942;5.074;2023-04-01T00:41:43;1.90;;;0.90;;
18657;SDS011;9458;50.942;5.074;2023-04-01T00:44:16;2.45;;;0.80;;
18657;SDS011;9458;50.942;5.074;2023-04-01T00:46:47;3.05;;;1.00;;
18657;SDS011;9458;50.942;5.074;2023-04-01T00:49:25;3.17;;;1.10;;
18657;SDS011;9458;50.942;5.074;2023-04-01T00:51:57;4.63;;;1.00;;
18657;SDS011;9458;50.942;5.074;2023-04-01T00:54:28;3.58;;;0.82;;
18657;SDS011;9458;50.942;5.074;2023-04-01T00:57:00;2.90;;;0.93;;
18657;SDS011;9458;50.942;5.074;2023-04-01T00:59:37;3.13;;;1.10;;
18657;SDS011;9458;50.942;5.074;2023-04-01T01:02:10;5.85;;;1.13;;
18657;SDS011;9458;50.942;5.074;2023-04-01T01:04:39;1.95;;;1.10;;
18657;SDS011;9458;50.942;5.074;2023-04-01T01:07:10;4.38;;;1.10;;
18657;SDS011;9458;50.942;5.074;2023-04-01T01:09:49;2.92;;;1.13;;
18657;SDS011;9458;50.942;5.074;2023-04-01T01:12:26;2.05;;;0.70;;
18657;SDS011;9458;50.942;5.074;2023-04-01T01:15:07;2.17;;;1.10;;
18657;SDS011;9458;50.942;5.074;2023-04-01T01:17:48;4.72;;;1.00;;
18657;SDS011;9458;50.942;5.074;2023-04-01T01:23:46;2.58;;;0.70;;
18657;SDS011;9458;50.942;5.074;2023-04-01T01:26:39;3.15;;;0.90;;
18657;SDS011;9458;50.942;5.074;2023-04-01T01:29:16;1.92;;;1.00;;
18657;SDS011;9458;50.942;5.074;2023-04-01T01:32:02;2.72;;;0.98;;
18657;SDS011;9458;50.942;5.074;2023-04-01T01:34:37;1.90;;;0.82;;
18657;SDS011;9458;50.942;5.074;2023-04-01T01:37:22;2.60;;;0.90;;
18657;SDS011;9458;50.942;5.074;2023-04-01T01:39:54;1.35;;;0.80;;
18657;SDS011;9458;50.942;5.074;2023-04-01T01:42:23;1.60;;;0.73;;
18657;SDS011;9458;50.942;5.074;2023-04-01T01:44:54;1.95;;;0.90;;
18657;SDS011;9458;50.942;5.074;2023-04-01T01:47:26;1.52;;;0.90;;
18657;SDS011;9458;50.942;5.074;2023-04-01T01:49:55;1.30;;;0.73;;
18657;SDS011;9458;50.942;5.074;2023-04-01T01:52:26;0.52;;;0.50;;
18657;SDS011;9458;50.942;5.074;2023-04-01T01:54:55;0.88;;;0.70;;
18657;SDS011;9458;50.942;5.074;2023-04-01T01:57:24;3.35;;;1.00;;
18657;SDS011;9458;50.942;5.074;2023-04-01T01:59:55;2.80;;;0.57;;
18657;SDS011;9458;50.942;5.074;2023-04-01T02:02:29;1.38;;;0.65;;
18657;SDS011;9458;50.942;5.074;2023-04-01T02:05:03;0.60;;;0.60;;
18657;SDS011;9458;50.942;5.074;2023-04-01T02:07:33;1.00;;;0.85;;
18657;SDS011;9458;50.942;5.074;2023-04-01T02:10:05;1.50;;;0.90;;
18657;SDS011;9458;50.942;5.074;2023-04-01T02:12:34;1.00;;;0.75;;
18657;SDS011;9458;50.942;5.074;2023-04-01T02:15:05;1.17;;;0.80;;
18657;SDS011;9458;50.942;5.074;2023-04-01T02:17:46;2.45;;;1.10;;
18657;SDS011;9458;50.942;5.074;2023-04-01T02:20:18;1.25;;;0.80;;
18657;SDS011;9458;50.942;5.074;2023-04-01T02:22:50;2.67;;;1.85;;
18657;SDS011;9458;50.942;5.074;2023-04-01T02:25:22;2.15;;;0.63;;
18657;SDS011;9458;50.942;5.074;2023-04-01T02:27:51;0.80;;;0.80;;
18657;SDS011;9458;50.942;5.074;2023-04-01T02:30:21;2.13;;;0.90;;
18657;SDS011;9458;50.942;5.074;2023-04-01T02:32:50;1.58;;;0.70;;
18657;SDS011;9458;50.942;5.074;2023-04-01T02:35:17;1.27;;;0.70;;
18657;SDS011;9458;50.942;5.074;2023-04-01T02:37:46;2.15;;;0.90;;
18657;SDS011;9458;50.942;5.074;2023-04-01T02:40:19;2.30;;;1.20;;
18657;SDS011;9458;50.942;5.074;2023-04-01T02:42:47;1.17;;;1.08;;
18657;SDS011;9458;50.942;5.074;2023-04-01T02:45:15;1.13;;;1.00;;
18657;SDS011;9458;50.942;5.074;2023-04-01T02:47:43;3.83;;;1.60;;
18657;SDS011;9458;50.942;5.074;2023-04-01T02:50:10;4.88;;;1.52;;
18657;SDS011;9458;50.942;5.074;2023-04-01T02:52:37;4.10;;;2.80;;
18657;SDS011;9458;50.942;5.074;2023-04-01T02:55:08;4.35;;;2.20;;
18657;SDS011;9458;50.942;5.074;2023-04-01T02:57:37;3.78;;;2.70;;
18657;SDS011;9458;50.942;5.074;2023-04-01T03:00:06;3.78;;;2.25;;
18657;SDS011;9458;50.942;5.074;2023-04-01T03:02:39;3.83;;;3.42;;
18657;SDS011;9458;50.942;5.074;2023-04-01T03:05:07;3.80;;;2.42;;
18657;SDS011;9458;50.942;5.074;2023-04-01T03:07:35;4.28;;;2.42;;
18657;SDS011;9458;50.942;5.074;2023-04-01T03:10:04;5.03;;;2.35;;
18657;SDS011;9458;50.942;5.074;2023-04-01T03:12:37;2.45;;;2.03;;
18657;SDS011;9458;50.942;5.074;2023-04-01T03:15:09;7.05;;;2.53;;
18657;SDS011;9458;50.942;5.074;2023-04-01T03:17:40;4.40;;;2.35;;
18657;SDS011;9458;50.942;5.074;2023-04-01T03:20:18;3.78;;;2.05;;
18657;SDS011;9458;50.942;5.074;2023-04-01T03:22:54;6.35;;;2.35;;
18657;SDS011;9458;50.942;5.074;2023-04-01T03:25:25;3.33;;;2.03;;
18657;SDS011;9458;50.942;5.074;2023-04-01T03:27:58;5.53;;;1.95;;
18657;SDS011;9458;50.942;5.074;2023-04-01T03:30:27;4.38;;;1.90;;
18657;SDS011;9458;50.942;5.074;2023-04-01T03:33:05;4.95;;;1.85;;
18657;SDS011;9458;50.942;5.074;2023-04-01T03:35:34;3.00;;;1.90;;
18657;SDS011;9458;50.942;5.074;2023-04-01T03:38:02;5.22;;;1.83;;
18657;SDS011;9458;50.942;5.074;2023-04-01T03:40:30;4.90;;;2.35;;
18657;SDS011;9458;50.942;5.074;2023-04-01T03:43:01;3.33;;;1.90;;
18657;SDS011;9458;50.942;5.074;2023-04-01T03:45:34;4.03;;;1.80;;
18657;SDS011;9458;50.942;5.074;2023-04-01T03:48:02;4.63;;;2.25;;
18657;SDS011;9458;50.942;5.074;2023-04-01T03:50:30;4.15;;;2.03;;
18657;SDS011;9458;50.942;5.074;2023-04-01T03:53:06;2.45;;;1.90;;
18657;SDS011;9458;50.942;5.074;2023-04-01T03:55:38;1.55;;;1.45;;
18657;SDS011;9458;50.942;5.074;2023-04-01T03:58:09;4.03;;;1.70;;
18657;SDS011;9458;50.942;5.074;2023-04-01T04:00:37;2.47;;;1.40;;
18657;SDS011;9458;50.942;5.074;2023-04-01T04:03:06;3.33;;;1.70;;
18657;SDS011;9458;50.942;5.074;2023-04-01T04:05:33;4.15;;;1.77;;
18657;SDS011;9458;50.942;5.074;2023-04-01T04:08:02;3.13;;;1.80;;
18657;SDS011;9458;50.942;5.074;2023-04-01T04:10:30;2.38;;;1.95;;
18657;SDS011;9458;50.942;5.074;2023-04-01T04:12:58;3.28;;;2.00;;
18657;SDS011;9458;50.942;5.074;2023-04-01T04:15:27;2.78;;;2.03;;
18657;SDS011;9458;50.942;5.074;2023-04-01T04:17:54;3.88;;;2.40;;
18657;SDS011;9458;50.942;5.074;2023-04-01T04:20:23;4.28;;;2.35;;
18657;SDS011;9458;50.942;5.074;2023-04-01T04:22:50;4.88;;;2.47;;
18657;SDS011;9458;50.942;5.074;2023-04-01T04:25:18;3.72;;;2.38;;
18657;SDS011;9458;50.942;5.074;2023-04-01T04:27:46;5.65;;;2.22;;
18657;SDS011;9458;50.942;5.074;2023-04-01T04:30:15;5.90;;;2.75;;
18657;SDS011;9458;50.942;5.074;2023-04-01T04:32:45;4.55;;;2.63;;
18657;SDS011;9458;50.942;5.074;2023-04-01T04:35:14;4.55;;;2.70;;
18657;SDS011;9458;50.942;5.074;2023-04-01T04:37:41;3.25;;;2.40;;
18657;SDS011;9458;50.942;5.074;2023-04-01T04:40:10;4.03;;;2.90;;
18657;SDS011;9458;50.942;5.074;2023-04-01T04:42:39;5.78;;;3.50;;
18657;SDS011;9458;50.942;5.074;2023-04-01T04:45:06;8.20;;;3.33;;
18657;SDS011;9458;50.942;5.074;2023-04-01T04:47:34;7.70;;;3.78;;
18657;SDS011;9458;50.942;5.074;2023-04-01T04:50:05;9.63;;;3.97;;
18657;SDS011;9458;50.942;5.074;2023-04-01T04:52:35;7.90;;;4.13;;
18657;SDS011;9458;50.942;5.074;2023-04-01T04:55:03;6.85;;;4.20;;
18657;SDS011;9458;50.942;5.074;2023-04-01T04:57:32;8.88;;;4.20;;
18657;SDS011;9458;50.942;5.074;2023-04-01T04:59:59;6.75;;;4.07;;
18657;SDS011;9458;50.942;5.074;2023-04-01T05:02:29;9.30;;;4.43;;
18657;SDS011;9458;50.942;5.074;2023-04-01T05:04:57;7.47;;;4.35;;
18657;SDS011;9458;50.942;5.074;2023-04-01T05:07:27;8.68;;;4.00;;
18657;SDS011;9458;50.942;5.074;2023-04-01T05:09:55;9.02;;;4.25;;
18657;SDS011;9458;50.942;5.074;2023-04-01T05:12:24;7.47;;;4.10;;
18657;SDS011;9458;50.942;5.074;2023-04-01T05:14:51;7.78;;;4.50;;
18657;SDS011;9458;50.942;5.074;2023-04-01T05:17:18;11.20;;;4.50;;
18657;SDS011;9458;50.942;5.074;2023-04-01T05:19:45;8.45;;;4.30;;
18657;SDS011;9458;50.942;5.074;2023-04-01T05:22:13;10.82;;;4.70;;
18657;SDS011;9458;50.942;5.074;2023-04-01T05:24:42;7.85;;;4.53;;
18657;SDS011;9458;50.942;5.074;2023-04-01T05:27:10;6.88;;;4.40;;
18657;SDS011;9458;50.942;5.074;2023-04-01T05:29:39;6.15;;;3.97;;
18657;SDS011;9458;50.942;5.074;2023-04-01T05:32:07;5.97;;;4.38;;
18657;SDS011;9458;50.942;5.074;2023-04-01T05:34:34;4.50;;;3.55;;
18657;SDS011;9458;50.942;5.074;2023-04-01T05:37:03;7.72;;;4.07;;
18657;SDS011;9458;50.942;5.074;2023-04-01T05:39:30;5.70;;;3.28;;
18657;SDS011;9458;50.942;5.074;2023-04-01T05:41:59;8.35;;;3.90;;
18657;SDS011;9458;50.942;5.074;2023-04-01T05:44:28;5.00;;;3.55;;
18657;SDS011;9458;50.942;5.074;2023-04-01T05:46:56;4.90;;;3.05;;
18657;SDS011;9458;50.942;5.074;2023-04-01T05:49:24;4.70;;;2.90;;
18657;SDS011;9458;50.942;5.074;2023-04-01T05:51:51;3.38;;;2.80;;
18657;SDS011;9458;50.942;5.074;2023-04-01T05:54:19;4.90;;;3.55;;
18657;SDS011;9458;50.942;5.074;2023-04-01T05:56:48;5.07;;;3.30;;
18657;SDS011;9458;50.942;5.074;2023-04-01T05:59:17;3.50;;;3.00;;
18657;SDS011;9458;50.942;5.074;2023-04-01T06:01:44;4.90;;;3.08;;
18657;SDS011;9458;50.942;5.074;2023-04-01T06:04:15;3.70;;;3.03;;
18657;SDS011;9458;50.942;5.074;2023-04-01T06:06:46;3.08;;;2.78;;
18657;SDS011;9458;50.942;5.074;2023-04-01T06:09:16;4.32;;;2.45;;
18657;SDS011;9458;50.942;5.074;2023-04-01T06:12:07;3.00;;;2.10;;
18657;SDS011;9458;50.942;5.074;2023-04-01T06:15:14;4.40;;;2.22;;
18657;SDS011;9458;50.942;5.074;2023-04-01T06:17:54;3.67;;;1.85;;
18657;SDS011;9458;50.942;5.074;2023-04-01T06:20:45;2.97;;;2.20;;
18657;SDS011;9458;50.942;5.074;2023-04-01T06:23:28;3.13;;;2.38;;
18657;SDS011;9458;50.942;5.074;2023-04-01T06:26:13;2.88;;;2.00;;
18657;SDS011;9458;50.942;5.074;2023-04-01T06:29:02;2.17;;;1.75;;
18657;SDS011;9458;50.942;5.074;2023-04-01T06:31:52;2.13;;;1.92;;
18657;SDS011;9458;50.942;5.074;2023-04-01T06:34:46;2.53;;;1.70;;
18657;SDS011;9458;50.942;5.074;2023-04-01T06:37:36;2.03;;;1.90;;
18657;SDS011;9458;50.942;5.074;2023-04-01T06:40:29;1.50;;;1.40;;
18657;SDS011;9458;50.942;5.074;2023-04-01T06:43:21;1.17;;;1.13;;
18657;SDS011;9458;50.942;5.074;2023-04-01T06:46:02;1.48;;;1.35;;
18657;SDS011;9458;50.942;5.074;2023-04-01T06:48:42;1.50;;;1.40;;
18657;SDS011;9458;50.942;5.074;2023-04-01T06:51:38;1.45;;;1.35;;
18657;SDS011;9458;50.942;5.074;2023-04-01T06:54:16;1.48;;;1.38;;
18657;SDS011;9458;50.942;5.074;2023-04-01T06:56:48;1.95;;;1.33;;
18657;SDS011;9458;50.942;5.074;2023-04-01T06:59:24;1.50;;;1.40;;
18657;SDS011;9458;50.942;5.074;2023-04-01T07:01:55;1.98;;;1.60;;
18657;SDS011;9458;50.942;5.074;2023-04-01T07:04:30;1.60;;;1.50;;
18657;SDS011;9458;50.942;5.074;2023-04-01T07:07:01;1.33;;;1.23;;
18657;SDS011;9458;50.942;5.074;2023-04-01T07:09:33;1.60;;;1.48;;
18657;SDS011;9458;50.942;5.074;2023-04-01T07:12:10;2.47;;;1.63;;
18657;SDS011;9458;50.942;5.074;2023-04-01T07:14:41;1.50;;;1.40;;
18657;SDS011;9458;50.942;5.074;2023-04-01T07:17:11;1.85;;;1.60;;
18657;SDS011;9458;50.942;5.074;2023-04-01T07:19:47;2.03;;;1.25;;
18657;SDS011;9458;50.942;5.074;2023-04-01T07:22:21;2.72;;;1.58;;
18657;SDS011;9458;50.942;5.074;2023-04-01T07:24:54;1.50;;;1.40;;
18657;SDS011;9458;50.942;5.074;2023-04-01T07:27:23;1.52;;;1.30;;
18657;SDS011;9458;50.942;5.074;2023-04-01T07:29:51;2.15;;;1.30;;
18657;SDS011;9458;50.942;5.074;2023-04-01T07:32:23;1.58;;;1.30;;
18657;SDS011;9458;50.942;5.074;2023-04-01T07:35:07;2.45;;;1.33;;
18657;SDS011;9458;50.942;5.074;2023-04-01T07:37:46;2.15;;;1.63;;
18657;SDS011;9458;50.942;5.074;2023-04-01T07:40:26;2.08;;;1.08;;
18657;SDS011;9458;50.942;5.074;2023-04-01T07:43:08;1.42;;;1.10;;
18657;SDS011;9458;50.942;5.074;2023-04-01T07:45:51;1.98;;;1.20;;
18657;SDS011;9458;50.942;5.074;2023-04-01T07:48:28;2.22;;;1.17;;
18657;SDS011;9458;50.942;5.074;2023-04-01T07:51:02;1.63;;;1.20;;
18657;SDS011;9458;50.942;5.074;2023-04-01T07:53:36;1.13;;;1.05;;
18657;SDS011;9458;50.942;5.074;2023-04-01T07:56:10;1.45;;;1.23;;
18657;SDS011;9458;50.942;5.074;2023-04-01T07:58:46;2.00;;;1.55;;
18657;SDS011;9458;50.942;5.074;2023-04-01T08:01:24;2.20;;;1.45;;
18657;SDS011;9458;50.942;5.074;2023-04-01T08:04:05;1.73;;;1.63;;
18657;SDS011;9458;50.942;5.074;2023-04-01T08:06:52;1.45;;;1.35;;
18657;SDS011;9458;50.942;5.074;2023-04-01T08:09:27;2.70;;;1.90;;
18657;SDS011;9458;50.942;5.074;2023-04-01T08:12:04;2.10;;;1.90;;
18657;SDS011;9458;50.942;5.074;2023-04-01T08:14:41;2.05;;;1.83;;
18657;SDS011;9458;50.942;5.074;2023-04-01T08:17:16;2.00;;;1.80;;
18657;SDS011;9458;50.942;5.074;2023-04-01T08:19:56;1.90;;;1.80;;
18657;SDS011;9458;50.942;5.074;2023-04-01T08:22:42;2.53;;;2.05;;
18657;SDS011;9458;50.942;5.074;2023-04-01T08:25:16;2.08;;;1.88;;
18657;SDS011;9458;50.942;5.074;2023-04-01T08:27:48;3.22;;;2.05;;
18657;SDS011;9458;50.942;5.074;2023-04-01T08:30:21;2.28;;;2.00;;
18657;SDS011;9458;50.942;5.074;2023-04-01T08:32:52;2.13;;;1.70;;
18657;SDS011;9458;50.942;5.074;2023-04-01T08:35:27;1.90;;;1.80;;
18657;SDS011;9458;50.942;5.074;2023-04-01T08:37:59;1.65;;;1.55;;
18657;SDS011;9458;50.942;5.074;2023-04-01T08:40:41;1.95;;;1.85;;
18657;SDS011;9458;50.942;5.074;2023-04-01T08:46:47;2.40;;;2.03;;
18657;SDS011;9458;50.942;5.074;2023-04-01T08:50:02;2.53;;;1.88;;
18657;SDS011;9458;50.942;5.074;2023-04-01T08:52:49;2.10;;;1.90;;
18657;SDS011;9458;50.942;5.074;2023-04-01T08:55:37;5.90;;;2.50;;
18657;SDS011;9458;50.942;5.074;2023-04-01T08:58:22;1.90;;;1.80;;
18657;SDS011;9458;50.942;5.074;2023-04-01T09:01:11;2.60;;;1.90;;
18657;SDS011;9458;50.942;5.074;2023-04-01T09:03:56;2.13;;;2.03;;
18657;SDS011;9458;50.942;5.074;2023-04-01T09:06:39;3.15;;;1.90;;
18657;SDS011;9458;50.942;5.074;2023-04-01T09:09:22;2.20;;;1.95;;
18657;SDS011;9458;50.942;5.074;2023-04-01T09:18:12;1.90;;;1.80;;
18657;SDS011;9458;50.942;5.074;2023-04-01T09:21:19;2.28;;;2.08;;
18657;SDS011;9458;50.942;5.074;2023-04-01T09:24:08;3.05;;;2.00;;
18657;SDS011;9458;50.942;5.074;2023-04-01T09:26:59;1.90;;;1.30;;
18657;SDS011;9458;50.942;5.074;2023-04-01T09:29:40;1.35;;;1.27;;
18657;SDS011;9458;50.942;5.074;2023-04-01T09:32:45;1.80;;;1.33;;
18657;SDS011;9458;50.942;5.074;2023-04-01T09:35:30;1.55;;;1.10;;
18657;SDS011;9458;50.942;5.074;2023-04-01T09:38:14;1.23;;;1.02;;
18657;SDS011;9458;50.942;5.074;2023-04-01T09:40:53;0.95;;;0.95;;
18657;SDS011;9458;50.942;5.074;2023-04-01T09:43:27;1.58;;;0.95;;
18657;SDS011;9458;50.942;5.074;2023-04-01T09:46:16;1.15;;;1.15;;
18657;SDS011;9458;50.942;5.074;2023-04-01T09:51:52;1.33;;;1.23;;
18657;SDS011;9458;50.942;5.074;2023-04-01T09:54:33;1.27;;;1.17;;
18657;SDS011;9458;50.942;5.074;2023-04-01T09:57:35;1.35;;;1.25;;
18657;SDS011;9458;50.942;5.074;2023-04-01T10:03:44;1.60;;;1.50;;
18657;SDS011;9458;50.942;5.074;2023-04-01T10:09:50;1.52;;;1.42;;
18657;SDS011;9458;50.942;5.074;2023-04-01T10:16:09;1.60;;;1.50;;
18657;SDS011;9458;50.942;5.074;2023-04-01T10:37:37;2.85;;;1.75;;
18657;SDS011;9458;50.942;5.074;2023-04-01T10:40:53;1.80;;;1.70;;
18657;SDS011;9458;50.942;5.074;2023-04-01T10:50:14;1.90;;;1.80;;
18657;SDS011;9458;50.942;5.074;2023-04-01T11:05:27;5.80;;;4.03;;
18657;SDS011;9458;50.942;5.074;2023-04-01T11:08:30;4.38;;;3.92;;
18657;SDS011;9458;50.942;5.074;2023-04-01T11:14:48;5.65;;;4.70;;
18657;SDS011;9458;50.942;5.074;2023-04-01T11:20:59;5.15;;;4.65;;
18657;SDS011;9458;50.942;5.074;2023-04-01T11:27:19;6.72;;;5.25;;
18657;SDS011;9458;50.942;5.074;2023-04-01T11:30:17;5.72;;;5.05;;
18657;SDS011;9458;50.942;5.074;2023-04-01T11:32:52;5.75;;;5.15;;
18657;SDS011;9458;50.942;5.074;2023-04-01T11:35:42;6.30;;;5.10;;
18657;SDS011;9458;50.942;5.074;2023-04-01T11:38:38;5.93;;;5.32;;
18657;SDS011;9458;50.942;5.074;2023-04-01T11:41:26;5.32;;;4.82;;
18657;SDS011;9458;50.942;5.074;2023-04-01T11:44:10;4.57;;;4.18;;
18657;SDS011;9458;50.942;5.074;2023-04-01T11:46:49;3.10;;;2.80;;
18657;SDS011;9458;50.942;5.074;2023-04-01T11:49:34;2.60;;;2.13;;
18657;SDS011;9458;50.942;5.074;2023-04-01T11:55:09;2.28;;;1.88;;
18657;SDS011;9458;50.942;5.074;2023-04-01T11:57:58;3.17;;;2.45;;
18657;SDS011;9458;50.942;5.074;2023-04-01T12:01:00;5.28;;;2.22;;
18657;SDS011;9458;50.942;5.074;2023-04-01T12:03:54;2.85;;;1.20;;
18657;SDS011;9458;50.942;5.074;2023-04-01T12:06:52;1.70;;;1.60;;
18657;SDS011;9458;50.942;5.074;2023-04-01T12:09:33;2.15;;;1.95;;
18657;SDS011;9458;50.942;5.074;2023-04-01T12:12:13;2.40;;;2.20;;
18657;SDS011;9458;50.942;5.074;2023-04-01T12:14:54;2.97;;;2.78;;
18657;SDS011;9458;50.942;5.074;2023-04-01T12:17:34;3.92;;;3.22;;
18657;SDS011;9458;50.942;5.074;2023-04-01T12:20:29;3.08;;;2.78;;
18657;SDS011;9458;50.942;5.074;2023-04-01T12:23:09;3.20;;;2.90;;
18657;SDS011;9458;50.942;5.074;2023-04-01T12:26:05;3.88;;;3.58;;
18657;SDS011;9458;50.942;5.074;2023-04-01T12:28:41;3.38;;;3.08;;
18657;SDS011;9458;50.942;5.074;2023-04-01T12:31:23;4.72;;;4.32;;
18657;SDS011;9458;50.942;5.074;2023-04-01T12:34:13;4.53;;;4.00;;
18657;SDS011;9458;50.942;5.074;2023-04-01T12:37:07;4.53;;;4.13;;
18657;SDS011;9458;50.942;5.074;2023-04-01T12:39:56;4.45;;;4.03;;
18657;SDS011;9458;50.942;5.074;2023-04-01T12:45:28;4.00;;;3.50;;
18657;SDS011;9458;50.942;5.074;2023-04-01T12:51:19;2.72;;;2.53;;
18657;SDS011;9458;50.942;5.074;2023-04-01T12:54:04;2.85;;;2.58;;
18657;SDS011;9458;50.942;5.074;2023-04-01T12:56:50;3.28;;;2.97;;
18657;SDS011;9458;50.942;5.074;2023-04-01T12:59:40;3.63;;;3.33;;
18657;SDS011;9458;50.942;5.074;2023-04-01T13:02:20;4.10;;;3.70;;
18657;SDS011;9458;50.942;5.074;2023-04-01T13:07:59;3.97;;;3.67;;
18657;SDS011;9458;50.942;5.074;2023-04-01T13:10:54;5.57;;;4.20;;
18657;SDS011;9458;50.942;5.074;2023-04-01T13:13:49;4.20;;;3.83;;
18657;SDS011;9458;50.942;5.074;2023-04-01T13:16:48;4.80;;;4.30;;
18657;SDS011;9458;50.942;5.074;2023-04-01T13:19:23;5.68;;;5.05;;
18657;SDS011;9458;50.942;5.074;2023-04-01T13:21:58;5.10;;;4.60;;
18657;SDS011;9458;50.942;5.074;2023-04-01T13:24:36;4.60;;;4.20;;
18657;SDS011;9458;50.942;5.074;2023-04-01T13:27:10;4.97;;;4.47;;
18657;SDS011;9458;50.942;5.074;2023-04-01T13:29:46;4.60;;;4.20;;
18657;SDS011;9458;50.942;5.074;2023-04-01T13:32:29;4.53;;;4.13;;
18657;SDS011;9458;50.942;5.074;2023-04-01T13:35:10;6.05;;;4.50;;
18657;SDS011;9458;50.942;5.074;2023-04-01T13:37:51;5.20;;;4.70;;
18657;SDS011;9458;50.942;5.074;2023-04-01T13:40:26;4.70;;;4.30;;
18657;SDS011;9458;50.942;5.074;2023-04-01T13:43:03;3.70;;;3.40;;
18657;SDS011;9458;50.942;5.074;2023-04-01T13:45:38;2.75;;;2.45;;
18657;SDS011;9458;50.942;5.074;2023-04-01T13:48:31;2.25;;;2.00;;
18657;SDS011;9458;50.942;5.074;2023-04-01T13:51:36;1.70;;;1.60;;
18657;SDS011;9458;50.942;5.074;2023-04-01T13:54:28;2.15;;;1.98;;
18657;SDS011;9458;50.942;5.074;2023-04-01T13:57:27;2.47;;;1.88;;
18657;SDS011;9458;50.942;5.074;2023-04-01T14:00:17;2.08;;;1.88;;
18657;SDS011;9458;50.942;5.074;2023-04-01T14:03:10;1.95;;;1.85;;
18657;SDS011;9458;50.942;5.074;2023-04-01T14:05:59;2.45;;;2.25;;
18657;SDS011;9458;50.942;5.074;2023-04-01T14:11:36;4.90;;;2.42;;
18657;SDS011;9458;50.942;5.074;2023-04-01T14:14:14;3.30;;;2.20;;
18657;SDS011;9458;50.942;5.074;2023-04-01T14:19:51;1.65;;;1.55;;
18657;SDS011;9458;50.942;5.074;2023-04-01T14:22:37;1.40;;;1.30;;
18657;SDS011;9458;50.942;5.074;2023-04-01T14:25:31;1.40;;;1.30;;
18657;SDS011;9458;50.942;5.074;2023-04-01T14:28:12;1.10;;;1.10;;
18657;SDS011;9458;50.942;5.074;2023-04-01T14:30:55;1.63;;;1.52;;
18657;SDS011;9458;50.942;5.074;2023-04-01T14:33:46;1.30;;;1.20;;
18657;SDS011;9458;50.942;5.074;2023-04-01T14:36:43;1.40;;;1.30;;
18657;SDS011;9458;50.942;5.074;2023-04-01T14:39:29;1.40;;;1.30;;
18657;SDS011;9458;50.942;5.074;2023-04-01T14:42:18;1.13;;;1.10;;
18657;SDS011;9458;50.942;5.074;2023-04-01T14:45:07;1.38;;;1.27;;
18657;SDS011;9458;50.942;5.074;2023-04-01T14:47:51;1.60;;;1.50;;
18657;SDS011;9458;50.942;5.074;2023-04-01T14:50:22;1.50;;;1.40;;
18657;SDS011;9458;50.942;5.074;2023-04-01T14:52:58;1.50;;;1.40;;
18657;SDS011;9458;50.942;5.074;2023-04-01T14:55:47;3.13;;;1.60;;
18657;SDS011;9458;50.942;5.074;2023-04-01T14:58:17;2.50;;;1.85;;
18657;SDS011;9458;50.942;5.074;2023-04-01T15:00:48;2.00;;;1.80;;
18657;SDS011;9458;50.942;5.074;2023-04-01T15:03:23;1.67;;;1.58;;
18657;SDS011;9458;50.942;5.074;2023-04-01T15:06:01;1.60;;;1.50;;
18657;SDS011;9458;50.942;5.074;2023-04-01T15:08:50;2.13;;;1.92;;
18657;SDS011;9458;50.942;5.074;2023-04-01T15:11:34;2.22;;;2.03;;
18657;SDS011;9458;50.942;5.074;2023-04-01T15:14:17;2.58;;;2.22;;
18657;SDS011;9458;50.942;5.074;2023-04-01T15:17:05;2.50;;;2.30;;
18657;SDS011;9458;50.942;5.074;2023-04-01T15:19:53;2.67;;;2.47;;
18657;SDS011;9458;50.942;5.074;2023-04-01T15:22:43;2.60;;;2.40;;
18657;SDS011;9458;50.942;5.074;2023-04-01T15:25:31;4.43;;;2.70;;
18657;SDS011;9458;50.942;5.074;2023-04-01T15:28:14;2.50;;;2.30;;
18657;SDS011;9458;50.942;5.074;2023-04-01T15:30:51;3.08;;;2.40;;
18657;SDS011;9458;50.942;5.074;2023-04-01T15:33:30;2.20;;;1.98;;
18657;SDS011;9458;50.942;5.074;2023-04-01T15:36:16;2.22;;;2.08;;
18657;SDS011;9458;50.942;5.074;2023-04-01T15:38:54;1.90;;;1.80;;
18657;SDS011;9458;50.942;5.074;2023-04-01T15:41:28;1.90;;;1.80;;
18657;SDS011;9458;50.942;5.074;2023-04-01T15:44:24;2.00;;;1.90;;
18657;SDS011;9458;50.942;5.074;2023-04-01T15:47:08;1.50;;;1.40;;
18657;SDS011;9458;50.942;5.074;2023-04-01T15:50:23;4.18;;;1.70;;
18657;SDS011;9458;50.942;5.074;2023-04-01T15:56:15;2.20;;;2.00;;
18657;SDS011;9458;50.942;5.074;2023-04-01T15:58:54;2.65;;;2.45;;
18657;SDS011;9458;50.942;5.074;2023-04-01T16:01:35;2.40;;;2.30;;
18657;SDS011;9458;50.942;5.074;2023-04-01T16:04:17;2.40;;;2.20;;
18657;SDS011;9458;50.942;5.074;2023-04-01T16:07:03;2.10;;;2.00;;
18657;SDS011;9458;50.942;5.074;2023-04-01T16:09:59;2.17;;;1.98;;
18657;SDS011;9458;50.942;5.074;2023-04-01T16:12:42;1.70;;;1.60;;
18657;SDS011;9458;50.942;5.074;2023-04-01T16:15:21;2.80;;;1.90;;
18657;SDS011;9458;50.942;5.074;2023-04-01T16:20:55;1.85;;;1.70;;
18657;SDS011;9458;50.942;5.074;2023-04-01T16:23:29;2.58;;;2.17;;
18657;SDS011;9458;50.942;5.074;2023-04-01T16:26:06;2.55;;;2.35;;
18657;SDS011;9458;50.942;5.074;2023-04-01T16:28:42;2.92;;;2.70;;
18657;SDS011;9458;50.942;5.074;2023-04-01T16:31:42;3.78;;;3.47;;
18657;SDS011;9458;50.942;5.074;2023-04-01T16:38:32;4.70;;;4.30;;
18657;SDS011;9458;50.942;5.074;2023-04-01T16:41:10;6.00;;;4.97;;
18657;SDS011;9458;50.942;5.074;2023-04-01T16:43:41;5.47;;;4.97;;
18657;SDS011;9458;50.942;5.074;2023-04-01T16:46:39;6.05;;;5.45;;
18657;SDS011;9458;50.942;5.074;2023-04-01T16:49:44;6.55;;;5.95;;
18657;SDS011;9458;50.942;5.074;2023-04-01T16:52:42;7.00;;;6.40;;
18657;SDS011;9458;50.942;5.074;2023-04-01T16:55:33;6.07;;;5.47;;
18657;SDS011;9458;50.942;5.074;2023-04-01T16:58:13;7.25;;;6.53;;
18657;SDS011;9458;50.942;5.074;2023-04-01T17:00:50;6.38;;;5.55;;
18657;SDS011;9458;50.942;5.074;2023-04-01T17:03:25;5.75;;;4.60;;
18657;SDS011;9458;50.942;5.074;2023-04-01T17:06:01;5.18;;;4.30;;
18657;SDS011;9458;50.942;5.074;2023-04-01T17:08:42;4.55;;;4.15;;
18657;SDS011;9458;50.942;5.074;2023-04-01T17:11:19;4.32;;;3.92;;
18657;SDS011;9458;50.942;5.074;2023-04-01T17:13:52;5.03;;;4.53;;
18657;SDS011;9458;50.942;5.074;2023-04-01T17:19:32;5.45;;;4.10;;
18657;SDS011;9458;50.942;5.074;2023-04-01T17:22:20;4.28;;;3.88;;
18657;SDS011;9458;50.942;5.074;2023-04-01T17:24:58;4.22;;;3.90;;
18657;SDS011;9458;50.942;5.074;2023-04-01T17:27:51;4.40;;;3.72;;
18657;SDS011;9458;50.942;5.074;2023-04-01T17:30:26;4.78;;;4.38;;
18657;SDS011;9458;50.942;5.074;2023-04-01T17:33:10;5.38;;;3.97;;
18657;SDS011;9458;50.942;5.074;2023-04-01T17:35:57;5.68;;;3.90;;
18657;SDS011;9458;50.942;5.074;2023-04-01T17:38:36;3.40;;;3.20;;
18657;SDS011;9458;50.942;5.074;2023-04-01T17:41:20;3.40;;;3.20;;
18657;SDS011;9458;50.942;5.074;2023-04-01T17:44:01;3.40;;;3.10;;
18657;SDS011;9458;50.942;5.074;2023-04-01T17:46:40;3.25;;;2.95;;
18657;SDS011;9458;50.942;5.074;2023-04-01T17:49:19;3.03;;;2.83;;
18657;SDS011;9458;50.942;5.074;2023-04-01T17:51:54;2.90;;;2.60;;
18657;SDS011;9458;50.942;5.074;2023-04-01T17:54:29;4.43;;;3.08;;